Time;durP1;ratioP1;P1;durP2;ratioP2;P2;SDS_P1;SDS_P2;PMS_P1;PMS_P2;Temp;Humidity;BMP_temperature;BMP_pressure;BME280_temperature;BME280_humidity;BME280_pressure;Samples;Min_cycle;Max_cycle;Signal;HPM_P1;HPM_P2
2022/08/28 00:00:18;;;;;;;23.42;15.48;;;;;;;;;;5132378;27;20020;-87
2022/08/28 00:02:45;;;;;;;25.20;18.02;;;;;;;;;;5097786;28;20020;-87
2022/08/28 00:05:13;;;;;;;25.83;16.48;;;;;;;;;;5100050;28;20074;-87
2022/08/28 00:07:39;;;;;;;23.15;15.15;;;;;;;;;;5096252;28;20383;-87
2022/08/28 00:10:07;;;;;;;21.08;15.80;;;;;;;;;;5129937;27;20016;-87
2022/08/28 00:12:34;;;;;;;19.80;15.95;;;;;;;;;;5130637;27;20024;-87
2022/08/28 00:15:00;;;;;;;28.25;16.40;;;;;;;;;;5131648;27;20020;-86
2022/08/28 00:17:26;;;;;;;23.05;16.55;;;;;;;;;;5131564;27;20032;-87
2022/08/28 00:19:52;;;;;;;23.85;16.33;;;;;;;;;;5098983;28;20069;-87
2022/08/28 00:22:19;;;;;;;27.83;16.35;;;;;;;;;;5096572;28;20075;-87
2022/08/28 00:24:45;;;;;;;26.25;18.67;;;;;;;;;;5121760;27;20032;-87
2022/08/28 00:29:56;;;;;;;28.65;19.08;;;;;;;;;;5076567;28;20035;-87
2022/08/28 00:32:23;;;;;;;30.30;19.45;;;;;;;;;;5126403;27;20402;-87
2022/08/28 00:34:50;;;;;;;24.77;17.85;;;;;;;;;;5123125;27;20050;-88
2022/08/28 00:37:16;;;;;;;22.50;18.40;;;;;;;;;;5130854;27;20012;-87
2022/08/28 00:39:42;;;;;;;24.83;19.15;;;;;;;;;;5094412;28;20128;-88
2022/08/28 00:42:09;;;;;;;27.77;17.77;;;;;;;;;;5143443;27;20035;-87
2022/08/28 00:44:35;;;;;;;23.85;17.83;;;;;;;;;;5095386;28;20065;-87
2022/08/28 00:47:02;;;;;;;25.00;15.73;;;;;;;;;;5128997;27;20031;-87
2022/08/28 00:49:34;;;;;;;18.65;14.35;;;;;;;;;;5118105;27;20024;-86
2022/08/28 00:52:10;;;;;;;21.70;14.30;;;;;;;;;;5098339;28;20024;-87
2022/08/28 00:54:39;;;;;;;18.77;13.65;;;;;;;;;;5131867;27;20044;-86
2022/08/28 00:57:06;;;;;;;28.55;14.70;;;;;;;;;;5129113;27;21146;-86
2022/08/28 00:59:33;;;;;;;25.20;14.63;;;;;;;;;;5092927;28;20039;-86
2022/08/28 01:01:59;;;;;;;21.20;13.65;;;;;;;;;;5126775;27;20020;-86
2022/08/28 01:04:26;;;;;;;22.73;14.98;;;;;;;;;;5127072;27;20047;-86
2022/08/28 01:06:54;;;;;;;24.58;17.02;;;;;;;;;;5092756;28;20178;-86
2022/08/28 01:09:21;;;;;;;35.47;23.10;;;;;;;;;;5112797;27;20017;-86
2022/08/28 01:11:48;;;;;;;23.30;16.67;;;;;;;;;;5092151;28;20030;-85
2022/08/28 01:14:16;;;;;;;31.55;14.18;;;;;;;;;;5092297;28;20022;-85
2022/08/28 01:16:42;;;;;;;20.52;15.18;;;;;;;;;;5091975;28;20525;-86
2022/08/28 01:19:14;;;;;;;28.00;14.55;;;;;;;;;;5095801;28;20032;-88
2022/08/28 01:22:03;;;;;;;26.35;14.63;;;;;;;;;;5093810;28;20031;-87
2022/08/28 01:24:32;;;;;;;17.08;15.25;;;;;;;;;;5094081;28;20043;-87
2022/08/28 01:26:58;;;;;;;27.10;15.63;;;;;;;;;;5096663;28;20031;-87
2022/08/28 01:29:24;;;;;;;24.05;17.30;;;;;;;;;;5094457;28;20020;-87
2022/08/28 01:31:50;;;;;;;23.60;16.58;;;;;;;;;;5094763;28;20024;-87
2022/08/28 01:34:16;;;;;;;27.48;16.88;;;;;;;;;;5092959;28;20020;-87
2022/08/28 01:36:43;;;;;;;25.95;16.23;;;;;;;;;;5128609;27;20107;-87
2022/08/28 01:39:15;;;;;;;21.27;15.07;;;;;;;;;;5112836;27;20081;-87
2022/08/28 01:41:44;;;;;;;26.17;17.95;;;;;;;;;;5094354;28;20024;-88
2022/08/28 01:44:10;;;;;;;24.27;16.45;;;;;;;;;;5130149;27;20020;-87
2022/08/28 01:46:37;;;;;;;18.05;15.20;;;;;;;;;;5128641;27;20067;-86
2022/08/28 01:49:03;;;;;;;24.80;16.63;;;;;;;;;;5094179;28;20444;-87
2022/08/28 01:51:29;;;;;;;24.48;16.98;;;;;;;;;;5094043;28;20090;-87
2022/08/28 01:53:56;;;;;;;21.40;16.70;;;;;;;;;;5128072;27;20495;-86
2022/08/28 01:56:22;;;;;;;21.77;17.27;;;;;;;;;;5092914;28;20023;-87
2022/08/28 01:58:48;;;;;;;23.35;17.02;;;;;;;;;;5092582;28;20047;-87
2022/08/28 02:01:16;;;;;;;28.38;17.95;;;;;;;;;;5094643;28;20455;-87
2022/08/28 02:03:42;;;;;;;23.30;17.80;;;;;;;;;;5118765;27;20020;-87
2022/08/28 02:06:08;;;;;;;33.90;16.75;;;;;;;;;;5089676;28;20527;-87
2022/08/28 02:08:35;;;;;;;23.65;17.15;;;;;;;;;;5128322;27;20028;-87
2022/08/28 02:11:02;;;;;;;18.88;16.90;;;;;;;;;;5128039;27;20069;-87
2022/08/28 02:13:28;;;;;;;21.13;17.48;;;;;;;;;;5128527;27;20027;-87
2022/08/28 02:15:54;;;;;;;23.95;17.00;;;;;;;;;;5127281;27;20494;-87
2022/08/28 02:18:20;;;;;;;27.67;17.42;;;;;;;;;;5092720;28;20544;-87
2022/08/28 02:20:46;;;;;;;23.13;18.98;;;;;;;;;;5115158;28;20031;-87
2022/08/28 02:23:12;;;;;;;26.02;17.45;;;;;;;;;;5091781;28;20071;-88
2022/08/28 02:25:38;;;;;;;22.30;18.30;;;;;;;;;;5091134;28;20095;-87
2022/08/28 02:28:05;;;;;;;34.70;17.85;;;;;;;;;;5113267;27;20020;-87
2022/08/28 02:30:31;;;;;;;21.35;16.67;;;;;;;;;;5098710;28;20043;-87
2022/08/28 02:32:57;;;;;;;24.33;17.25;;;;;;;;;;5125053;27;20021;-87
2022/08/28 02:35:23;;;;;;;26.38;17.67;;;;;;;;;;5127416;27;20506;-88
2022/08/28 02:37:50;;;;;;;25.77;19.85;;;;;;;;;;5096810;28;20496;-87
2022/08/28 02:40:17;;;;;;;26.50;18.52;;;;;;;;;;5132267;27;20032;-86
2022/08/28 02:42:44;;;;;;;22.25;17.95;;;;;;;;;;5096571;28;20313;-87
2022/08/28 02:45:11;;;;;;;25.13;19.27;;;;;;;;;;5130557;27;20020;-87
2022/08/28 02:47:38;;;;;;;21.67;16.73;;;;;;;;;;5130290;27;20028;-87
2022/08/28 02:50:06;;;;;;;26.10;19.25;;;;;;;;;;5130087;27;20020;-87
2022/08/28 02:52:32;;;;;;;26.48;18.98;;;;;;;;;;5115285;27;20021;-87
2022/08/28 02:54:58;;;;;;;26.17;19.77;;;;;;;;;;5118414;27;20023;-88
2022/08/28 02:57:26;;;;;;;27.40;19.27;;;;;;;;;;5099780;28;20024;-86
2022/08/28 02:59:52;;;;;;;24.70;18.20;;;;;;;;;;5131595;27;20023;-87
2022/08/28 03:02:18;;;;;;;21.88;18.90;;;;;;;;;;5131132;27;20129;-87
2022/08/28 03:04:44;;;;;;;21.40;17.38;;;;;;;;;;5131542;27;20023;-86
2022/08/28 03:07:12;;;;;;;22.48;18.27;;;;;;;;;;5131151;27;20027;-87
2022/08/28 03:09:40;;;;;;;24.38;18.63;;;;;;;;;;5128448;27;20017;-87
2022/08/28 03:12:06;;;;;;;23.30;18.75;;;;;;;;;;5098645;28;20029;-77
2022/08/28 03:14:33;;;;;;;20.63;18.48;;;;;;;;;;5128350;27;20020;-77
2022/08/28 03:17:00;;;;;;;21.30;17.17;;;;;;;;;;5094037;28;20024;-78
2022/08/28 03:19:26;;;;;;;28.45;18.42;;;;;;;;;;5094098;28;20085;-78
2022/08/28 03:21:52;;;;;;;23.50;18.35;;;;;;;;;;5096980;28;20104;-77
2022/08/28 03:24:18;;;;;;;25.38;16.83;;;;;;;;;;5093860;28;20024;-78
2022/08/28 03:26:45;;;;;;;27.40;16.63;;;;;;;;;;5117527;27;20048;-78
2022/08/28 03:29:11;;;;;;;21.45;15.75;;;;;;;;;;5121605;27;20030;-77
2022/08/28 03:31:37;;;;;;;21.17;17.02;;;;;;;;;;5093905;28;20375;-77
2022/08/28 03:34:04;;;;;;;17.75;15.85;;;;;;;;;;5090490;28;20348;-77
2022/08/28 03:36:30;;;;;;;26.52;16.25;;;;;;;;;;5084146;28;20020;-77
2022/08/28 03:38:58;;;;;;;20.55;16.15;;;;;;;;;;5094394;28;20032;-77
2022/08/28 03:41:25;;;;;;;20.73;17.63;;;;;;;;;;5092349;28;20074;-78
2022/08/28 03:43:51;;;;;;;27.75;18.48;;;;;;;;;;5093402;28;20016;-77
2022/08/28 03:46:22;;;;;;;24.17;17.65;;;;;;;;;;5079252;28;20107;-78
2022/08/28 03:48:49;;;;;;;29.02;17.77;;;;;;;;;;5114711;27;20021;-78
2022/08/28 03:51:20;;;;;;;24.08;18.20;;;;;;;;;;5125971;27;20498;-79
2022/08/28 03:53:46;;;;;;;20.38;17.38;;;;;;;;;;5093089;28;20024;-78
2022/08/28 03:56:15;;;;;;;27.02;17.92;;;;;;;;;;5127015;27;20490;-77
2022/08/28 03:58:41;;;;;;;24.70;17.98;;;;;;;;;;5127081;27;20047;-78
2022/08/28 04:01:07;;;;;;;24.80;18.23;;;;;;;;;;5116094;27;20521;-77
2022/08/28 04:03:33;;;;;;;25.73;17.08;;;;;;;;;;5106720;27;20472;-78
2022/08/28 04:06:00;;;;;;;25.70;17.42;;;;;;;;;;5087015;28;20012;-79
2022/08/28 04:08:27;;;;;;;20.83;18.30;;;;;;;;;;5120571;27;20063;-79
2022/08/28 04:10:53;;;;;;;33.38;18.38;;;;;;;;;;5102316;28;20024;-78
2022/08/28 04:13:20;;;;;;;21.45;18.25;;;;;;;;;;5092835;28;20085;-79
2022/08/28 04:15:55;;;;;;;27.88;17.95;;;;;;;;;;5092267;28;20414;-77
2022/08/28 04:18:21;;;;;;;25.85;18.60;;;;;;;;;;5092850;28;20028;-77
2022/08/28 04:20:57;;;;;;;27.58;17.20;;;;;;;;;;5108976;27;20012;-78
2022/08/28 04:23:23;;;;;;;32.30;18.27;;;;;;;;;;5118445;27;20437;-78
2022/08/28 04:25:49;;;;;;;24.23;18.67;;;;;;;;;;5126657;27;20020;-77
2022/08/28 04:28:15;;;;;;;29.17;18.60;;;;;;;;;;5126831;27;20012;-76
2022/08/28 04:30:42;;;;;;;22.02;18.00;;;;;;;;;;5092556;28;20399;-77
2022/08/28 04:33:09;;;;;;;23.88;16.60;;;;;;;;;;5126775;27;20523;-76
2022/08/28 04:35:35;;;;;;;22.27;17.63;;;;;;;;;;5126478;27;20031;-77
2022/08/28 04:38:01;;;;;;;24.95;17.27;;;;;;;;;;5092361;28;20032;-78
2022/08/28 04:40:27;;;;;;;22.02;16.65;;;;;;;;;;5126510;27;20020;-77
2022/08/28 04:42:53;;;;;;;23.30;17.95;;;;;;;;;;5111878;27;20107;-78
2022/08/28 04:45:20;;;;;;;28.88;16.63;;;;;;;;;;5126425;27;20020;-77
2022/08/28 04:47:46;;;;;;;18.58;16.30;;;;;;;;;;5126276;27;20024;-77
2022/08/28 04:50:12;;;;;;;21.95;17.60;;;;;;;;;;5126499;27;20085;-77
2022/08/28 04:52:38;;;;;;;21.35;16.52;;;;;;;;;;5091851;28;20017;-77
2022/08/28 04:55:05;;;;;;;20.75;14.00;;;;;;;;;;5093396;28;20382;-77
2022/08/28 04:57:31;;;;;;;20.95;14.95;;;;;;;;;;5091615;28;20487;-79
2022/08/28 04:59:57;;;;;;;19.65;12.80;;;;;;;;;;5111922;27;20353;-80
2022/08/28 05:02:23;;;;;;;24.27;11.82;;;;;;;;;;5113024;27;20088;-78
2022/08/28 05:04:49;;;;;;;19.80;13.60;;;;;;;;;;5090306;28;20070;-79
2022/08/28 05:07:15;;;;;;;19.67;13.57;;;;;;;;;;5125932;27;20024;-78
2022/08/28 05:09:41;;;;;;;17.67;13.45;;;;;;;;;;5091560;28;20032;-79
2022/08/28 05:12:11;;;;;;;14.82;12.05;;;;;;;;;;5125841;27;20024;-78
2022/08/28 05:14:38;;;;;;;16.52;12.05;;;;;;;;;;5126011;27;20356;-78
2022/08/28 05:17:04;;;;;;;23.02;11.70;;;;;;;;;;5091314;28;20020;-81
2022/08/28 05:19:32;;;;;;;17.67;11.52;;;;;;;;;;5125721;27;20032;-78
2022/08/28 05:21:58;;;;;;;16.17;12.35;;;;;;;;;;5125362;27;20036;-78
2022/08/28 05:24:24;;;;;;;15.77;13.18;;;;;;;;;;5127797;27;20058;-78
2022/08/28 05:26:50;;;;;;;17.67;12.82;;;;;;;;;;5091223;28;20020;-77
2022/08/28 05:29:17;;;;;;;22.85;14.80;;;;;;;;;;5088020;28;20013;-79
2022/08/28 05:31:43;;;;;;;18.25;12.77;;;;;;;;;;5117309;27;20016;-79
2022/08/28 05:34:09;;;;;;;19.35;13.90;;;;;;;;;;5090889;28;20016;-77
2022/08/28 05:36:36;;;;;;;21.17;12.23;;;;;;;;;;5090966;28;20023;-79
2022/08/28 05:39:04;;;;;;;21.65;12.55;;;;;;;;;;5088576;28;20028;-80
2022/08/28 05:41:30;;;;;;;21.80;11.77;;;;;;;;;;5113213;27;20065;-80
2022/08/28 05:43:58;;;;;;;16.45;10.98;;;;;;;;;;5124993;27;20020;-79
2022/08/28 05:46:24;;;;;;;13.02;10.55;;;;;;;;;;5125095;27;20056;-80
2022/08/28 05:48:50;;;;;;;17.70;11.05;;;;;;;;;;5090879;28;20047;-78
2022/08/28 05:51:18;;;;;;;19.48;11.30;;;;;;;;;;5090996;28;20013;-80
2022/08/28 05:53:45;;;;;;;15.60;11.05;;;;;;;;;;5090912;28;20043;-79
2022/08/28 05:56:12;;;;;;;23.13;15.52;;;;;;;;;;5090833;28;20405;-79
2022/08/28 05:58:39;;;;;;;20.55;15.75;;;;;;;;;;5124985;27;20028;-79
2022/08/28 06:01:22;;;;;;;20.65;13.57;;;;;;;;;;5090077;28;20020;-78
2022/08/28 06:03:53;;;;;;;14.60;11.63;;;;;;;;;;5114116;27;20479;-78
2022/08/28 06:06:20;;;;;;;18.55;11.18;;;;;;;;;;5124661;27;20040;-77
2022/08/28 06:08:46;;;;;;;15.63;11.27;;;;;;;;;;5125141;27;20096;-77
2022/08/28 06:11:12;;;;;;;20.27;13.40;;;;;;;;;;5110138;27;20017;-77
2022/08/28 06:13:38;;;;;;;25.48;11.93;;;;;;;;;;5124556;27;20024;-77
2022/08/28 06:16:04;;;;;;;17.38;11.10;;;;;;;;;;5091771;28;20521;-78
2022/08/28 06:18:30;;;;;;;15.57;11.13;;;;;;;;;;5090554;28;20482;-77
2022/08/28 06:21:00;;;;;;;21.55;11.57;;;;;;;;;;5124314;27;20564;-77
2022/08/28 06:23:26;;;;;;;27.92;12.05;;;;;;;;;;5090368;28;20048;-75
2022/08/28 06:25:52;;;;;;;15.00;11.13;;;;;;;;;;5090481;28;20023;-76
2022/08/28 06:28:22;;;;;;;21.00;12.35;;;;;;;;;;5114965;27;20016;-79
2022/08/28 06:30:49;;;;;;;15.90;11.85;;;;;;;;;;5119744;28;20020;-79
2022/08/28 06:33:16;;;;;;;17.20;11.52;;;;;;;;;;5124228;28;20320;-78
2022/08/28 06:35:43;;;;;;;19.08;13.27;;;;;;;;;;5075762;28;20116;-79
2022/08/28 06:38:10;;;;;;;20.15;12.52;;;;;;;;;;5124206;28;20593;-79
2022/08/28 06:40:44;;;;;;;22.00;12.70;;;;;;;;;;5090131;28;20020;-79
2022/08/28 06:43:11;;;;;;;15.45;11.75;;;;;;;;;;5124098;27;20016;-80
2022/08/28 06:45:41;;;;;;;23.88;13.05;;;;;;;;;;5109552;27;20495;-79
2022/08/28 06:48:08;;;;;;;28.10;13.18;;;;;;;;;;5089647;28;20103;-80
2022/08/28 06:50:37;;;;;;;23.75;11.05;;;;;;;;;;5089734;28;20024;-81
2022/08/28 06:53:03;;;;;;;21.83;11.18;;;;;;;;;;5089736;28;20019;-79
2022/08/28 06:55:29;;;;;;;22.30;10.57;;;;;;;;;;5125937;28;20024;-79
2022/08/28 06:57:55;;;;;;;18.25;11.02;;;;;;;;;;5093962;28;20038;-77
2022/08/28 07:00:21;;;;;;;19.15;11.10;;;;;;;;;;5092919;28;20040;-77
2022/08/28 07:02:48;;;;;;;18.60;11.70;;;;;;;;;;5092671;28;20020;-77
2022/08/28 07:05:14;;;;;;;21.25;10.15;;;;;;;;;;5090771;28;20024;-78
2022/08/28 07:07:40;;;;;;;15.38;11.32;;;;;;;;;;5090119;28;20387;-78
2022/08/28 07:10:07;;;;;;;19.42;10.05;;;;;;;;;;5077224;28;20048;-78
2022/08/28 07:12:33;;;;;;;18.73;10.23;;;;;;;;;;5124300;28;20020;-77
2022/08/28 07:15:00;;;;;;;18.33;10.85;;;;;;;;;;5114700;27;20020;-77
2022/08/28 07:17:26;;;;;;;16.58;10.45;;;;;;;;;;5111709;28;20031;-77
2022/08/28 07:19:52;;;;;;;15.57;11.10;;;;;;;;;;5118403;27;20065;-77
2022/08/28 07:22:18;;;;;;;17.25;10.85;;;;;;;;;;5087679;28;20040;-78
2022/08/28 07:24:44;;;;;;;18.17;11.00;;;;;;;;;;5115688;27;20110;-77
2022/08/28 07:27:10;;;;;;;18.00;10.38;;;;;;;;;;5093946;28;20020;-80
2022/08/28 07:29:36;;;;;;;20.08;11.00;;;;;;;;;;5074934;28;20066;-80
2022/08/28 07:32:03;;;;;;;18.10;10.75;;;;;;;;;;5102571;28;20020;-77
2022/08/28 07:34:29;;;;;;;16.33;11.88;;;;;;;;;;5093529;28;20020;-79
2022/08/28 07:36:57;;;;;;;16.67;10.98;;;;;;;;;;5127767;27;20024;-77
2022/08/28 07:39:23;;;;;;;18.08;11.13;;;;;;;;;;5112923;27;20089;-77
2022/08/28 07:41:49;;;;;;;16.65;11.50;;;;;;;;;;5093227;28;20028;-77
2022/08/28 07:47:02;;;;;;;21.10;11.25;;;;;;;;;;5094449;28;20452;-76
2022/08/28 07:49:29;;;;;;;21.45;11.27;;;;;;;;;;5092698;28;20050;-80
2022/08/28 07:51:55;;;;;;;15.68;10.90;;;;;;;;;;5093018;28;20035;-80
2022/08/28 07:54:22;;;;;;;18.02;10.95;;;;;;;;;;5092746;28;20472;-75
2022/08/28 07:56:48;;;;;;;18.45;11.57;;;;;;;;;;5127014;27;20024;-80
2022/08/28 07:59:15;;;;;;;15.02;11.60;;;;;;;;;;5092334;28;20032;-77
2022/08/28 08:01:43;;;;;;;19.60;10.77;;;;;;;;;;5094105;28;20066;-79
2022/08/28 08:04:11;;;;;;;16.65;12.25;;;;;;;;;;5093382;28;20023;-78
2022/08/28 08:06:38;;;;;;;13.73;10.60;;;;;;;;;;5133063;27;20489;-77
2022/08/28 08:09:05;;;;;;;17.50;11.50;;;;;;;;;;5100289;28;20020;-76
2022/08/28 08:11:31;;;;;;;31.50;12.63;;;;;;;;;;5133642;27;20020;-78
2022/08/28 08:14:02;;;;;;;21.20;12.02;;;;;;;;;;5131226;27;20021;-76
2022/08/28 08:16:29;;;;;;;16.35;11.05;;;;;;;;;;5093840;28;20023;-78
2022/08/28 08:18:56;;;;;;;17.83;11.20;;;;;;;;;;5126525;27;20039;-77
2022/08/28 08:21:22;;;;;;;16.73;11.35;;;;;;;;;;5126670;27;20023;-75
2022/08/28 08:23:48;;;;;;;20.15;11.60;;;;;;;;;;5092233;28;20093;-76
2022/08/28 08:26:19;;;;;;;16.48;10.20;;;;;;;;;;5119848;27;20024;-76
2022/08/28 08:28:45;;;;;;;15.82;9.90;;;;;;;;;;5084829;28;20020;-76
2022/08/28 08:31:13;;;;;;;19.58;10.80;;;;;;;;;;5092110;28;20020;-76
2022/08/28 08:33:41;;;;;;;17.50;10.45;;;;;;;;;;5093592;28;20020;-77
2022/08/28 08:36:08;;;;;;;15.68;11.60;;;;;;;;;;5078174;28;20103;-76
2022/08/28 08:38:35;;;;;;;15.88;10.07;;;;;;;;;;5091698;28;20028;-76
2022/08/28 08:41:04;;;;;;;18.77;11.95;;;;;;;;;;5092072;28;20024;-76
2022/08/28 08:43:33;;;;;;;14.85;11.27;;;;;;;;;;5092164;28;20020;-76
2022/08/28 08:45:59;;;;;;;15.38;9.88;;;;;;;;;;5126010;27;20020;-75
2022/08/28 08:48:30;;;;;;;18.35;11.48;;;;;;;;;;5116640;27;20017;-75
2022/08/28 08:51:01;;;;;;;13.90;10.30;;;;;;;;;;5119523;27;20028;-75
2022/08/28 08:53:41;;;;;;;15.20;9.82;;;;;;;;;;5114590;27;20567;-75
2022/08/28 08:56:10;;;;;;;13.57;10.18;;;;;;;;;;5125642;27;20391;-76
2022/08/28 08:58:37;;;;;;;15.93;9.95;;;;;;;;;;5091586;28;20047;-77
2022/08/28 09:01:22;;;;;;;18.13;11.13;;;;;;;;;;5091763;28;20062;-77
2022/08/28 09:04:08;;;;;;;19.30;10.35;;;;;;;;;;5116095;27;20081;-76
2022/08/28 09:06:47;;;;;;;18.30;10.63;;;;;;;;;;5125691;27;20045;-76
2022/08/28 09:09:33;;;;;;;13.48;9.82;;;;;;;;;;5125795;27;20107;-76
2022/08/28 09:12:00;;;;;;;17.20;9.98;;;;;;;;;;5092843;28;20320;-77
2022/08/28 09:14:29;;;;;;;21.17;11.48;;;;;;;;;;5091744;28;20031;-76
2022/08/28 09:16:56;;;;;;;20.50;10.77;;;;;;;;;;5125526;27;20027;-77
2022/08/28 09:19:22;;;;;;;17.48;10.68;;;;;;;;;;5105585;27;20029;-77
2022/08/28 09:21:49;;;;;;;18.25;10.95;;;;;;;;;;5082793;28;20020;-77
2022/08/28 09:24:37;;;;;;;16.27;10.93;;;;;;;;;;5111061;27;20024;-76
2022/08/28 09:27:07;;;;;;;14.93;10.65;;;;;;;;;;5078289;28;20029;-76
2022/08/28 09:29:33;;;;;;;18.58;10.57;;;;;;;;;;5118999;27;20070;-78
2022/08/28 09:32:14;;;;;;;26.13;10.82;;;;;;;;;;5118982;27;20020;-78
2022/08/28 09:34:57;;;;;;;16.15;9.80;;;;;;;;;;5117119;27;20024;-76
2022/08/28 09:37:28;;;;;;;16.05;9.35;;;;;;;;;;5087632;28;20475;-76
2022/08/28 09:40:22;;;;;;;18.40;9.50;;;;;;;;;;5124370;27;20062;-76
2022/08/28 09:45:45;;;;;;;17.45;8.95;;;;;;;;;;5091090;28;20399;-76
2022/08/28 09:48:29;;;;;;;15.13;8.68;;;;;;;;;;5112384;27;20375;-76
2022/08/28 09:51:18;;;;;;;15.73;11.73;;;;;;;;;;5082263;28;20539;-77
2022/08/28 09:53:50;;;;;;;17.88;8.70;;;;;;;;;;5101015;28;20376;-76
2022/08/28 09:56:28;;;;;;;14.77;9.48;;;;;;;;;;5114729;27;20076;-80
2022/08/28 09:58:58;;;;;;;23.27;9.02;;;;;;;;;;5103188;28;20455;-79
2022/08/28 10:01:42;;;;;;;19.17;9.45;;;;;;;;;;5084502;28;20103;-79
2022/08/28 10:04:27;;;;;;;16.05;9.20;;;;;;;;;;5092452;28;20031;-77
2022/08/28 10:06:56;;;;;;;25.17;8.02;;;;;;;;;;5112665;27;20024;-77
2022/08/28 10:09:38;;;;;;;18.85;8.63;;;;;;;;;;5125139;27;20028;-79
2022/08/28 10:12:25;;;;;;;19.05;11.05;;;;;;;;;;5111282;27;20066;-80
2022/08/28 10:14:58;;;;;;;20.70;10.18;;;;;;;;;;5081314;28;20028;-78
2022/08/28 10:17:41;;;;;;;16.50;8.38;;;;;;;;;;5101336;28;20020;-79
2022/08/28 10:20:07;;;;;;;19.50;8.70;;;;;;;;;;5115897;27;20119;-77
2022/08/28 10:23:00;;;;;;;22.95;9.77;;;;;;;;;;5109652;28;20135;-78
2022/08/28 10:25:27;;;;;;;;;;;;;;;;;;5094805;28;20504;-87
2022/08/28 10:27:58;;;;;;;15.20;9.20;;;;;;;;;;5110929;27;19905;-83
2022/08/28 10:30:25;;;;;;;21.52;15.88;;;;;;;;;;5091425;28;20413;-86
2022/08/28 10:33:10;;;;;;;13.50;9.70;;;;;;;;;;5130528;27;20091;-86
2022/08/28 10:35:36;;;;;;;15.80;12.38;;;;;;;;;;5095456;28;20073;-85
2022/08/28 10:38:28;;;;;;;11.82;8.48;;;;;;;;;;5094341;28;20044;-83
2022/08/28 10:41:05;;;;;;;17.70;9.00;;;;;;;;;;5097833;28;20166;-79
2022/08/28 10:43:34;;;;;;;13.60;8.30;;;;;;;;;;5104667;27;20083;-80
2022/08/28 10:46:03;;;;;;;17.88;8.55;;;;;;;;;;5119137;28;20016;-80
2022/08/28 10:48:45;;;;;;;21.50;10.52;;;;;;;;;;5080918;28;20093;-81
2022/08/28 10:51:27;;;;;;;21.00;8.50;;;;;;;;;;5110365;27;20020;-81
2022/08/28 10:53:55;;;;;;;16.10;8.85;;;;;;;;;;5087411;28;20035;-80
2022/08/28 10:56:24;;;;;;;13.13;11.13;;;;;;;;;;5130042;27;20086;-85
2022/08/28 10:58:54;;;;;;;15.98;8.45;;;;;;;;;;5129267;27;20080;-77
2022/08/28 11:01:26;;;;;;;15.82;8.65;;;;;;;;;;5109556;28;20012;-81
2022/08/28 11:03:53;;;;;;;13.85;8.60;;;;;;;;;;5095486;28;20020;-81
2022/08/28 11:06:22;;;;;;;30.35;16.45;;;;;;;;;;5094232;28;20028;-76
2022/08/28 11:08:55;;;;;;;14.68;8.95;;;;;;;;;;5095112;28;20024;-80
2022/08/28 11:11:42;;;;;;;22.50;9.50;;;;;;;;;;5113571;27;20025;-80
2022/08/28 11:14:09;;;;;;;13.75;9.40;;;;;;;;;;5094668;28;20039;-80
2022/08/28 11:16:41;;;;;;;17.17;7.80;;;;;;;;;;5117535;27;20056;-78
2022/08/28 11:19:07;;;;;;;11.98;8.90;;;;;;;;;;5091600;28;20028;-78
2022/08/28 11:21:44;;;;;;;20.02;9.23;;;;;;;;;;5125677;27;20111;-76
2022/08/28 11:24:29;;;;;;;18.00;11.55;;;;;;;;;;5096970;28;20039;-77
2022/08/28 11:27:15;;;;;;;17.88;13.68;;;;;;;;;;5093588;28;20100;-77
2022/08/28 11:30:00;;;;;;;19.98;14.25;;;;;;;;;;5093514;28;20056;-83
2022/08/28 11:32:32;;;;;;;17.98;8.25;;;;;;;;;;5093597;28;20028;-81
2022/08/28 11:35:17;;;;;;;32.45;12.95;;;;;;;;;;5092379;28;20089;-81
2022/08/28 11:37:44;;;;;;;25.10;18.85;;;;;;;;;;5090752;28;20028;-76
2022/08/28 11:40:17;;;;;;;17.08;10.85;;;;;;;;;;5095989;28;20127;-79
2022/08/28 11:42:47;;;;;;;23.73;12.45;;;;;;;;;;5121064;27;20059;-78
2022/08/28 11:45:39;;;;;;;26.95;16.00;;;;;;;;;;5087964;28;20020;-82
2022/08/28 11:48:05;;;;;;;20.45;12.48;;;;;;;;;;5061314;28;20040;-82
2022/08/28 11:50:32;;;;;;;16.42;7.90;;;;;;;;;;5127575;27;20123;-79
2022/08/28 11:53:01;;;;;;;23.55;11.18;;;;;;;;;;5093237;28;20393;-78
2022/08/28 11:55:30;;;;;;;23.17;9.63;;;;;;;;;;5127138;27;20257;-77
2022/08/28 11:58:11;;;;;;;24.23;7.93;;;;;;;;;;5127258;27;20024;-77
2022/08/28 12:00:56;;;;;;;15.65;8.50;;;;;;;;;;5120333;27;20459;-79
2022/08/28 12:03:27;;;;;;;14.82;10.23;;;;;;;;;;5092724;28;20058;-77
2022/08/28 12:05:55;;;;;;;15.57;10.73;;;;;;;;;;5127094;27;20020;-79
2022/08/28 12:08:40;;;;;;;31.63;26.30;;;;;;;;;;5092839;28;20099;-76
2022/08/28 12:11:06;;;;;;;30.17;19.20;;;;;;;;;;5127259;27;20428;-80
2022/08/28 12:13:50;;;;;;;40.65;35.60;;;;;;;;;;5092594;28;20023;-78
2022/08/28 12:16:16;;;;;;;28.45;20.15;;;;;;;;;;5092595;28;20028;-76
2022/08/28 12:18:49;;;;;;;23.20;13.55;;;;;;;;;;5092596;28;20514;-77
2022/08/28 12:21:22;;;;;;;13.25;6.85;;;;;;;;;;5079530;28;20035;-77
2022/08/28 12:23:57;;;;;;;15.65;7.28;;;;;;;;;;5130100;27;20050;-76
2022/08/28 12:26:25;;;;;;;17.65;9.27;;;;;;;;;;5089190;28;20115;-76
2022/08/28 12:28:56;;;;;;;30.17;26.58;;;;;;;;;;5090557;28;20024;-76
2022/08/28 12:32:10;;;;;;;33.70;30.20;;;;;;;;;;5115289;27;20119;-75
2022/08/28 12:34:22;;;;;;;92.00;83.95;;;;;;;;;;5094220;28;20027;-79
2022/08/28 12:36:54;;;;;;;15.77;10.50;;;;;;;;;;5125983;27;20016;-76
2022/08/28 12:39:20;;;;;;;14.25;6.35;;;;;;;;;;5134623;27;20535;-75
2022/08/28 12:41:47;;;;;;;18.30;13.38;;;;;;;;;;5095893;28;20071;-78
2022/08/28 12:44:16;;;;;;;20.20;9.95;;;;;;;;;;5092928;28;20498;-75
2022/08/28 12:46:43;;;;;;;19.55;9.55;;;;;;;;;;5111073;27;20020;-74
2022/08/28 12:49:26;;;;;;;18.80;10.80;;;;;;;;;;5078409;28;20103;-74
2022/08/28 12:52:05;;;;;;;26.13;18.25;;;;;;;;;;5091665;28;20020;-76
2022/08/28 12:54:31;;;;;;;14.55;7.80;;;;;;;;;;5091900;28;20043;-75
2022/08/28 12:56:57;;;;;;;18.45;7.15;;;;;;;;;;5091655;28;20361;-78
2022/08/28 12:59:39;;;;;;;14.85;7.78;;;;;;;;;;5125683;27;20039;-75
2022/08/28 13:02:18;;;;;;;33.25;24.92;;;;;;;;;;5122095;27;20028;-75
2022/08/28 13:04:59;;;;;;;16.98;15.18;;;;;;;;;;5101883;27;20138;-75
2022/08/28 13:07:30;;;;;;;28.23;23.23;;;;;;;;;;5090162;28;20024;-75
2022/08/28 13:09:58;;;;;;;42.42;37.90;;;;;;;;;;5120897;27;20043;-77
2022/08/28 13:12:24;;;;;;;23.33;17.48;;;;;;;;;;5091627;28;20020;-76
2022/08/28 13:14:51;;;;;;;25.23;17.75;;;;;;;;;;5115229;27;20077;-76
2022/08/28 13:17:37;;;;;;;29.25;23.70;;;;;;;;;;5124708;27;20056;-79
2022/08/28 13:20:05;;;;;;;20.08;10.13;;;;;;;;;;5114853;27;20032;-77
2022/08/28 13:22:33;;;;;;;17.73;8.35;;;;;;;;;;5088335;28;20043;-75
2022/08/28 13:25:00;;;;;;;20.08;16.80;;;;;;;;;;5125309;27;20055;-76
2022/08/28 13:27:27;;;;;;;24.70;22.15;;;;;;;;;;5124440;27;20027;-74
2022/08/28 13:29:57;;;;;;;29.45;15.35;;;;;;;;;;5077783;28;20020;-75
2022/08/28 13:32:23;;;;;;;40.05;35.92;;;;;;;;;;5090936;28;20448;-79
2022/08/28 13:35:05;;;;;;;21.33;15.43;;;;;;;;;;5090083;28;20024;-76
2022/08/28 13:37:45;;;;;;;26.98;18.90;;;;;;;;;;5092133;28;20096;-76
2022/08/28 13:40:12;;;;;;;15.00;12.17;;;;;;;;;;5124964;27;20059;-76
2022/08/28 13:42:38;;;;;;;19.23;13.63;;;;;;;;;;5124819;27;20487;-74
2022/08/28 13:45:05;;;;;;;19.25;6.05;;;;;;;;;;5124783;27;20016;-75
2022/08/28 13:47:31;;;;;;;27.38;20.95;;;;;;;;;;5090276;28;20020;-76
2022/08/28 13:49:57;;;;;;;23.45;19.67;;;;;;;;;;5072727;28;20487;-79
2022/08/28 13:52:23;;;;;;;27.30;24.42;;;;;;;;;;5083253;28;20028;-75
2022/08/28 13:54:49;;;;;;;43.28;37.67;;;;;;;;;;5089011;28;20104;-76
2022/08/28 13:57:15;;;;;;;50.00;44.65;;;;;;;;;;5113618;27;20546;-75
2022/08/28 13:59:42;;;;;;;19.73;15.32;;;;;;;;;;5077040;28;20064;-77
2022/08/28 14:04:55;;;;;;;17.38;7.72;;;;;;;;;;5091698;28;20028;-75
2022/08/28 14:07:21;;;;;;;19.88;11.77;;;;;;;;;;5115569;27;20058;-76
2022/08/28 14:09:47;;;;;;;13.13;7.53;;;;;;;;;;5071602;28;20111;-80
2022/08/28 14:12:13;;;;;;;19.77;12.90;;;;;;;;;;5077525;28;20020;-74
2022/08/28 14:14:39;;;;;;;12.80;7.05;;;;;;;;;;5116410;27;20020;-83
2022/08/28 14:17:06;;;;;;;40.15;35.67;;;;;;;;;;5120381;27;20487;-79
2022/08/28 14:19:32;;;;;;;23.02;12.80;;;;;;;;;;5080579;28;20036;-77
2022/08/28 14:21:58;;;;;;;45.42;38.63;;;;;;;;;;5119480;27;20036;-77
2022/08/28 14:24:24;;;;;;;16.73;8.10;;;;;;;;;;5123849;27;20017;-76
2022/08/28 14:26:51;;;;;;;16.55;6.03;;;;;;;;;;5090963;28;20420;-77
2022/08/28 14:29:17;;;;;;;29.02;25.98;;;;;;;;;;5091624;28;20031;-76
2022/08/28 14:31:46;;;;;;;15.57;8.07;;;;;;;;;;5091378;28;20016;-80
2022/08/28 14:34:17;;;;;;;18.17;9.15;;;;;;;;;;5090050;28;20035;-79
2022/08/28 14:36:43;;;;;;;15.07;10.43;;;;;;;;;;5090269;28;20016;-79
2022/08/28 14:39:10;;;;;;;13.25;8.95;;;;;;;;;;5087421;28;20032;-77
2022/08/28 14:41:37;;;;;;;13.68;6.05;;;;;;;;;;5121828;28;20024;-77